Alto Pass, IL

11:29 PM CDT on October 19, 2014 (GMT -0500)
Cedar Lake Boat Launch | Change Station
CLOSE
Current Station
Personal Weather Station
Location: Carbondale, IL
Elevation: 548 ft
Nearby Weather Stations

Elev 548 ft 37.67 °N, 89.27 °W | Updated 13 minutes ago

Clear
Clear
49.8 °F
Feels Like 50 °F
N
1.0
Wind Variable Wind from SSW
Gusts 3.0 mph

Today
High -- | Low -- °F
--% Chance of Precip.
Yesterday
High -- | Low -- °F
Precip. -- in
7:09 AM 6:14 PM
Waning Crescent, 13% visible
Pressure 30.08 in
Visibility 10.0 miles
Clouds Clear
Windchill 50 °F
Dew Point 46 °F
Humidity 87%
Rainfall 0.00 in
Snow Depth Not available.
UV 0 out of 12
Pollen 1.90 out of 12
Air Quality Not available.
Flu Activity No Activity
METAR KMDH 200252Z AUTO 18003KT 10SM CLR 10/06 A3007 RMK AO2 SLP184 T01000061 56008

More Conditions Fewer Conditions

Pressure 30.08 in
Visibility 10.0 miles
Clouds Clear
Windchill 50 °F
Dew Point 46 °F
Humidity 87%
Rainfall 0.00 in
Snow Depth Not available.
UV 0 out of 12
Pollen 1.90 out of 12
Air Quality Not available.
Flu Activity No Activity
METAR KMDH 200252Z AUTO 18003KT 10SM CLR 10/06 A3007 RMK AO2 SLP184 T01000061 56008

More Conditions Fewer Conditions

10-Day Weather Forecast

Almanac

Astronomy

Oct. 19, 2014 Rise Set
Actual Time 7:09 AM CDT 6:14 PM CDT
Civil Twilight 6:42 AM CDT 6:41 PM CDT
Nautical Twilight 6:12 AM CDT 7:11 PM CDT
Astronomical Twilight 5:42 AM CDT 7:41 PM CDT
Moon 3:07 AM CDT (10/19) 4:02 PM CDT (10/19)
Length of Visible Light 11h 58m
Length of Day
11h 05m
Waning Crescent, 13% of the Moon is Illuminated
Oct 20
Waning Crescent
Oct 23
New
Oct 30
First Quarter
Nov 6
Full
Nov 14
Last Quarter

Yesterday's Extremes

State Highs State Lows

Community

WunderPhotos

Upload Photos

1,763,294 photos uploaded!

Nearby

Snow Depth

Station Depth Elevation
No new snow has been reported.

Earthquake Activity

City Distance Mag. Time & Date
No recent earthquake activity has been reported nearby.
Minimum magnitude displayed is 2.5.

Coastal Water Temperatures

Place Temperature
No Stations Reporting

Nearby Weather Stations